Terminal Aerodrome Forecast
Issued by NWS

Home | Current Version | Previous Version | Text Only | Print | Product List | Glossary On
Versions: 1 2 3 4 5 6 7 8 9 10 11 12 13 14
000
FTUS43 KIND 271720
TAFLAF
TAF
KLAF 271720Z 2718/2818 24014KT P6SM OVC020
     FM272300 24012KT P6SM BKN035
     FM280300 22005KT P6SM SCT030
     FM280700 19004KT P6SM BKN070
     FM281400 16009KT P6SM BKN070=

USA.gov is the U.S. government's official web portal to all federal, state and local government web resources and services.